sensor_id;sensor_type;location;lat;lon;timestamp;P1;durP1;ratioP1;P2;durP2;ratioP2
32838;SDS011;19182;41.820;12.808;2023-10-09T00:01:17;13.82;;;8.48;;
32838;SDS011;19182;41.820;12.808;2023-10-09T00:03:43;16.15;;;8.50;;
32838;SDS011;19182;41.820;12.808;2023-10-09T00:06:12;13.60;;;8.32;;
32838;SDS011;19182;41.820;12.808;2023-10-09T00:08:39;12.38;;;8.30;;
32838;SDS011;19182;41.820;12.808;2023-10-09T00:11:09;13.13;;;8.18;;
32838;SDS011;19182;41.820;12.808;2023-10-09T00:13:41;11.00;;;7.95;;
32838;SDS011;19182;41.820;12.808;2023-10-09T00:16:16;17.70;;;9.20;;
32838;SDS011;19182;41.820;12.808;2023-10-09T00:18:47;15.73;;;9.60;;
32838;SDS011;19182;41.820;12.808;2023-10-09T00:21:16;13.00;;;8.60;;
32838;SDS011;19182;41.820;12.808;2023-10-09T00:23:48;16.92;;;9.43;;
32838;SDS011;19182;41.820;12.808;2023-10-09T00:26:24;17.17;;;9.75;;
32838;SDS011;19182;41.820;12.808;2023-10-09T00:28:51;13.93;;;9.30;;
32838;SDS011;19182;41.820;12.808;2023-10-09T00:31:17;12.63;;;8.73;;
32838;SDS011;19182;41.820;12.808;2023-10-09T00:33:59;14.43;;;9.45;;
32838;SDS011;19182;41.820;12.808;2023-10-09T00:36:30;15.77;;;8.60;;
32838;SDS011;19182;41.820;12.808;2023-10-09T00:38:57;15.23;;;9.48;;
32838;SDS011;19182;41.820;12.808;2023-10-09T00:41:36;17.37;;;9.90;;
32838;SDS011;19182;41.820;12.808;2023-10-09T00:46:33;16.33;;;8.93;;
32838;SDS011;19182;41.820;12.808;2023-10-09T00:49:00;13.30;;;8.75;;
32838;SDS011;19182;41.820;12.808;2023-10-09T00:51:28;13.75;;;9.02;;
32838;SDS011;19182;41.820;12.808;2023-10-09T00:54:01;13.32;;;8.73;;
32838;SDS011;19182;41.820;12.808;2023-10-09T00:56:32;15.38;;;9.05;;
32838;SDS011;19182;41.820;12.808;2023-10-09T00:59:04;16.13;;;8.63;;
32838;SDS011;19182;41.820;12.808;2023-10-09T01:01:49;15.18;;;8.27;;
32838;SDS011;19182;41.820;12.808;2023-10-09T01:04:22;15.35;;;8.10;;
32838;SDS011;19182;41.820;12.808;2023-10-09T01:07:09;10.93;;;7.95;;
32838;SDS011;19182;41.820;12.808;2023-10-09T01:09:40;13.40;;;8.23;;
32838;SDS011;19182;41.820;12.808;2023-10-09T01:12:10;12.90;;;7.57;;
32838;SDS011;19182;41.820;12.808;2023-10-09T01:15:01;13.70;;;7.75;;
32838;SDS011;19182;41.820;12.808;2023-10-09T01:17:31;16.55;;;7.57;;
32838;SDS011;19182;41.820;12.808;2023-10-09T01:20:01;13.23;;;8.43;;
32838;SDS011;19182;41.820;12.808;2023-10-09T01:22:30;12.40;;;7.95;;
32838;SDS011;19182;41.820;12.808;2023-10-09T01:24:57;15.52;;;7.22;;
32838;SDS011;19182;41.820;12.808;2023-10-09T01:27:23;13.07;;;7.07;;
32838;SDS011;19182;41.820;12.808;2023-10-09T01:29:57;11.38;;;6.85;;
32838;SDS011;19182;41.820;12.808;2023-10-09T01:32:24;10.43;;;7.22;;
32838;SDS011;19182;41.820;12.808;2023-10-09T01:34:53;11.70;;;6.80;;
32838;SDS011;19182;41.820;12.808;2023-10-09T01:37:20;11.63;;;7.35;;
32838;SDS011;19182;41.820;12.808;2023-10-09T01:39:54;11.20;;;6.78;;
32838;SDS011;19182;41.820;12.808;2023-10-09T01:42:30;13.88;;;7.57;;
32838;SDS011;19182;41.820;12.808;2023-10-09T01:45:10;13.80;;;6.93;;
32838;SDS011;19182;41.820;12.808;2023-10-09T01:47:46;12.27;;;6.70;;
32838;SDS011;19182;41.820;12.808;2023-10-09T01:50:19;12.63;;;6.55;;
32838;SDS011;19182;41.820;12.808;2023-10-09T01:52:47;8.95;;;6.15;;
32838;SDS011;19182;41.820;12.808;2023-10-09T01:55:16;15.52;;;7.00;;
32838;SDS011;19182;41.820;12.808;2023-10-09T01:58:01;13.32;;;6.28;;
32838;SDS011;19182;41.820;12.808;2023-10-09T02:00:49;12.48;;;6.90;;
32838;SDS011;19182;41.820;12.808;2023-10-09T02:03:27;17.95;;;6.72;;
32838;SDS011;19182;41.820;12.808;2023-10-09T02:06:02;12.43;;;5.93;;
32838;SDS011;19182;41.820;12.808;2023-10-09T02:08:43;10.45;;;6.47;;
32838;SDS011;19182;41.820;12.808;2023-10-09T02:11:15;13.07;;;7.15;;
32838;SDS011;19182;41.820;12.808;2023-10-09T02:13:49;10.32;;;5.75;;
32838;SDS011;19182;41.820;12.808;2023-10-09T02:16:26;13.85;;;7.22;;
32838;SDS011;19182;41.820;12.808;2023-10-09T02:19:06;11.77;;;5.85;;
32838;SDS011;19182;41.820;12.808;2023-10-09T02:21:33;10.25;;;6.35;;
32838;SDS011;19182;41.820;12.808;2023-10-09T02:24:05;10.77;;;5.68;;
32838;SDS011;19182;41.820;12.808;2023-10-09T02:26:51;11.75;;;5.55;;
32838;SDS011;19182;41.820;12.808;2023-10-09T02:29:16;14.80;;;6.50;;
32838;SDS011;19182;41.820;12.808;2023-10-09T02:31:48;10.90;;;5.63;;
32838;SDS011;19182;41.820;12.808;2023-10-09T02:34:18;13.40;;;6.82;;
32838;SDS011;19182;41.820;12.808;2023-10-09T02:36:50;8.93;;;4.85;;
32838;SDS011;19182;41.820;12.808;2023-10-09T02:39:25;10.75;;;6.28;;
32838;SDS011;19182;41.820;12.808;2023-10-09T02:41:54;15.15;;;6.55;;
32838;SDS011;19182;41.820;12.808;2023-10-09T02:44:25;11.43;;;5.32;;
32838;SDS011;19182;41.820;12.808;2023-10-09T02:46:51;14.50;;;5.97;;
32838;SDS011;19182;41.820;12.808;2023-10-09T02:49:22;12.85;;;5.93;;
32838;SDS011;19182;41.820;12.808;2023-10-09T02:51:49;11.27;;;5.30;;
32838;SDS011;19182;41.820;12.808;2023-10-09T02:54:18;16.23;;;5.07;;
32838;SDS011;19182;41.820;12.808;2023-10-09T02:56:48;16.73;;;6.20;;
32838;SDS011;19182;41.820;12.808;2023-10-09T02:59:21;17.40;;;5.38;;
32838;SDS011;19182;41.820;12.808;2023-10-09T03:01:48;12.43;;;5.20;;
32838;SDS011;19182;41.820;12.808;2023-10-09T03:04:14;7.95;;;4.78;;
32838;SDS011;19182;41.820;12.808;2023-10-09T03:06:41;11.30;;;5.28;;
32838;SDS011;19182;41.820;12.808;2023-10-09T03:09:22;11.68;;;5.35;;
32838;SDS011;19182;41.820;12.808;2023-10-09T03:11:55;24.15;;;4.65;;
32838;SDS011;19182;41.820;12.808;2023-10-09T03:14:27;14.57;;;5.38;;
32838;SDS011;19182;41.820;12.808;2023-10-09T03:17:00;12.43;;;4.90;;
32838;SDS011;19182;41.820;12.808;2023-10-09T03:19:26;18.05;;;5.47;;
32838;SDS011;19182;41.820;12.808;2023-10-09T03:21:56;12.93;;;4.72;;
32838;SDS011;19182;41.820;12.808;2023-10-09T03:24:23;7.10;;;4.50;;
32838;SDS011;19182;41.820;12.808;2023-10-09T03:26:49;14.73;;;5.65;;
32838;SDS011;19182;41.820;12.808;2023-10-09T03:29:15;12.10;;;4.60;;
32838;SDS011;19182;41.820;12.808;2023-10-09T03:31:44;15.60;;;4.85;;
32838;SDS011;19182;41.820;12.808;2023-10-09T03:34:15;12.02;;;4.57;;
32838;SDS011;19182;41.820;12.808;2023-10-09T03:36:41;9.88;;;4.15;;
32838;SDS011;19182;41.820;12.808;2023-10-09T03:39:08;9.90;;;5.10;;
32838;SDS011;19182;41.820;12.808;2023-10-09T03:42:03;14.07;;;4.63;;
32838;SDS011;19182;41.820;12.808;2023-10-09T03:44:33;13.52;;;4.80;;
32838;SDS011;19182;41.820;12.808;2023-10-09T03:47:13;11.43;;;4.20;;
32838;SDS011;19182;41.820;12.808;2023-10-09T03:49:41;12.65;;;5.18;;
32838;SDS011;19182;41.820;12.808;2023-10-09T03:52:08;9.65;;;3.83;;
32838;SDS011;19182;41.820;12.808;2023-10-09T03:54:42;13.13;;;4.65;;
32838;SDS011;19182;41.820;12.808;2023-10-09T03:57:17;13.35;;;4.53;;
32838;SDS011;19182;41.820;12.808;2023-10-09T03:59:45;10.93;;;4.10;;
32838;SDS011;19182;41.820;12.808;2023-10-09T04:02:15;18.05;;;4.90;;
32838;SDS011;19182;41.820;12.808;2023-10-09T04:04:42;12.27;;;4.47;;
32838;SDS011;19182;41.820;12.808;2023-10-09T04:07:13;14.07;;;4.00;;
32838;SDS011;19182;41.820;12.808;2023-10-09T04:09:42;11.07;;;4.55;;
32838;SDS011;19182;41.820;12.808;2023-10-09T04:12:35;13.60;;;3.95;;
32838;SDS011;19182;41.820;12.808;2023-10-09T04:15:04;14.25;;;4.10;;
32838;SDS011;19182;41.820;12.808;2023-10-09T04:17:40;12.68;;;4.15;;
32838;SDS011;19182;41.820;12.808;2023-10-09T04:20:08;14.07;;;4.78;;
32838;SDS011;19182;41.820;12.808;2023-10-09T04:22:43;12.57;;;4.82;;
32838;SDS011;19182;41.820;12.808;2023-10-09T04:25:27;9.85;;;4.10;;
32838;SDS011;19182;41.820;12.808;2023-10-09T04:28:07;14.07;;;4.53;;
32838;SDS011;19182;41.820;12.808;2023-10-09T04:30:41;14.93;;;5.07;;
32838;SDS011;19182;41.820;12.808;2023-10-09T04:33:31;10.13;;;4.65;;
32838;SDS011;19182;41.820;12.808;2023-10-09T04:38:41;9.77;;;4.10;;
32838;SDS011;19182;41.820;12.808;2023-10-09T04:41:26;15.05;;;3.95;;
32838;SDS011;19182;41.820;12.808;2023-10-09T04:43:58;9.88;;;4.50;;
32838;SDS011;19182;41.820;12.808;2023-10-09T04:46:43;16.35;;;5.03;;
32838;SDS011;19182;41.820;12.808;2023-10-09T04:49:30;17.67;;;4.30;;
32838;SDS011;19182;41.820;12.808;2023-10-09T04:52:10;12.15;;;5.15;;
32838;SDS011;19182;41.820;12.808;2023-10-09T04:54:56;11.45;;;4.72;;
32838;SDS011;19182;41.820;12.808;2023-10-09T04:57:34;14.35;;;5.38;;
32838;SDS011;19182;41.820;12.808;2023-10-09T05:00:15;15.23;;;4.13;;
32838;SDS011;19182;41.820;12.808;2023-10-09T05:02:51;13.18;;;4.60;;
32838;SDS011;19182;41.820;12.808;2023-10-09T05:05:25;15.32;;;5.55;;
32838;SDS011;19182;41.820;12.808;2023-10-09T05:08:16;16.85;;;5.15;;
32838;SDS011;19182;41.820;12.808;2023-10-09T05:10:52;7.90;;;4.13;;
32838;SDS011;19182;41.820;12.808;2023-10-09T05:13:26;17.20;;;5.38;;
32838;SDS011;19182;41.820;12.808;2023-10-09T05:16:17;14.40;;;5.28;;
32838;SDS011;19182;41.820;12.808;2023-10-09T05:18:47;11.68;;;5.50;;
32838;SDS011;19182;41.820;12.808;2023-10-09T05:21:36;11.68;;;5.47;;
32838;SDS011;19182;41.820;12.808;2023-10-09T05:24:07;13.20;;;5.22;;
32838;SDS011;19182;41.820;12.808;2023-10-09T05:26:40;17.60;;;5.72;;
32838;SDS011;19182;41.820;12.808;2023-10-09T05:29:19;20.42;;;6.88;;
32838;SDS011;19182;41.820;12.808;2023-10-09T05:31:58;16.50;;;5.97;;
32838;SDS011;19182;41.820;12.808;2023-10-09T05:34:40;23.50;;;5.55;;
32838;SDS011;19182;41.820;12.808;2023-10-09T05:37:29;12.25;;;5.22;;
32838;SDS011;19182;41.820;12.808;2023-10-09T05:40:08;19.73;;;5.28;;
32838;SDS011;19182;41.820;12.808;2023-10-09T05:42:44;19.83;;;5.65;;
32838;SDS011;19182;41.820;12.808;2023-10-09T05:45:22;16.87;;;5.27;;
32838;SDS011;19182;41.820;12.808;2023-10-09T05:48:06;24.08;;;6.05;;
32838;SDS011;19182;41.820;12.808;2023-10-09T05:50:39;15.48;;;5.57;;
32838;SDS011;19182;41.820;12.808;2023-10-09T05:53:26;11.82;;;5.50;;
32838;SDS011;19182;41.820;12.808;2023-10-09T05:56:10;22.00;;;6.13;;
32838;SDS011;19182;41.820;12.808;2023-10-09T05:58:54;18.38;;;6.03;;
32838;SDS011;19182;41.820;12.808;2023-10-09T06:01:39;12.77;;;5.07;;
32838;SDS011;19182;41.820;12.808;2023-10-09T06:04:23;18.58;;;5.80;;
32838;SDS011;19182;41.820;12.808;2023-10-09T06:07:08;19.33;;;6.15;;
32838;SDS011;19182;41.820;12.808;2023-10-09T06:09:38;16.85;;;6.10;;
32838;SDS011;19182;41.820;12.808;2023-10-09T06:12:21;20.75;;;5.97;;
32838;SDS011;19182;41.820;12.808;2023-10-09T06:14:59;22.00;;;5.63;;
32838;SDS011;19182;41.820;12.808;2023-10-09T06:17:55;18.63;;;6.25;;
32838;SDS011;19182;41.820;12.808;2023-10-09T06:20:34;18.20;;;6.65;;
32838;SDS011;19182;41.820;12.808;2023-10-09T06:23:25;17.23;;;5.65;;
32838;SDS011;19182;41.820;12.808;2023-10-09T06:26:14;24.65;;;7.40;;
32838;SDS011;19182;41.820;12.808;2023-10-09T06:28:55;29.70;;;8.05;;
32838;SDS011;19182;41.820;12.808;2023-10-09T06:31:40;21.90;;;7.65;;
32838;SDS011;19182;41.820;12.808;2023-10-09T06:34:22;21.30;;;6.82;;
32838;SDS011;19182;41.820;12.808;2023-10-09T06:36:58;23.10;;;7.15;;
32838;SDS011;19182;41.820;12.808;2023-10-09T06:39:41;20.08;;;8.40;;
32838;SDS011;19182;41.820;12.808;2023-10-09T06:42:20;24.75;;;8.98;;
32838;SDS011;19182;41.820;12.808;2023-10-09T06:45:05;23.88;;;11.30;;
32838;SDS011;19182;41.820;12.808;2023-10-09T06:47:42;31.42;;;12.35;;
32838;SDS011;19182;41.820;12.808;2023-10-09T06:50:21;32.30;;;13.40;;
32838;SDS011;19182;41.820;12.808;2023-10-09T06:52:52;27.77;;;12.57;;
32838;SDS011;19182;41.820;12.808;2023-10-09T06:55:36;30.08;;;12.80;;
32838;SDS011;19182;41.820;12.808;2023-10-09T06:58:14;21.30;;;9.20;;
32838;SDS011;19182;41.820;12.808;2023-10-09T07:00:54;27.58;;;10.10;;
32838;SDS011;19182;41.820;12.808;2023-10-09T07:03:40;27.85;;;12.18;;
32838;SDS011;19182;41.820;12.808;2023-10-09T07:06:18;28.60;;;13.20;;
32838;SDS011;19182;41.820;12.808;2023-10-09T07:09:00;34.55;;;14.95;;
32838;SDS011;19182;41.820;12.808;2023-10-09T07:11:34;29.90;;;12.57;;
32838;SDS011;19182;41.820;12.808;2023-10-09T07:14:14;24.85;;;12.82;;
32838;SDS011;19182;41.820;12.808;2023-10-09T07:17:09;30.90;;;11.32;;
32838;SDS011;19182;41.820;12.808;2023-10-09T07:19:47;53.38;;;14.63;;
32838;SDS011;19182;41.820;12.808;2023-10-09T07:22:16;38.65;;;14.43;;
32838;SDS011;19182;41.820;12.808;2023-10-09T07:24:52;42.05;;;14.65;;
32838;SDS011;19182;41.820;12.808;2023-10-09T07:27:26;35.03;;;16.00;;
32838;SDS011;19182;41.820;12.808;2023-10-09T07:30:17;43.72;;;23.77;;
32838;SDS011;19182;41.820;12.808;2023-10-09T07:32:56;38.13;;;21.88;;
32838;SDS011;19182;41.820;12.808;2023-10-09T07:35:44;56.50;;;29.77;;
32838;SDS011;19182;41.820;12.808;2023-10-09T07:38:23;61.38;;;29.95;;
32838;SDS011;19182;41.820;12.808;2023-10-09T07:41:00;56.00;;;32.00;;
32838;SDS011;19182;41.820;12.808;2023-10-09T07:43:33;49.92;;;29.40;;
32838;SDS011;19182;41.820;12.808;2023-10-09T07:46:17;55.28;;;24.85;;
32838;SDS011;19182;41.820;12.808;2023-10-09T07:49:18;36.65;;;18.98;;
32838;SDS011;19182;41.820;12.808;2023-10-09T07:51:50;32.92;;;16.30;;
32838;SDS011;19182;41.820;12.808;2023-10-09T07:54:20;27.40;;;12.80;;
32838;SDS011;19182;41.820;12.808;2023-10-09T07:56:59;29.85;;;11.18;;
32838;SDS011;19182;41.820;12.808;2023-10-09T07:59:40;21.80;;;9.40;;
32838;SDS011;19182;41.820;12.808;2023-10-09T08:02:20;20.30;;;10.52;;
32838;SDS011;19182;41.820;12.808;2023-10-09T08:04:58;29.02;;;14.38;;
32838;SDS011;19182;41.820;12.808;2023-10-09T08:07:45;23.30;;;11.35;;
32838;SDS011;19182;41.820;12.808;2023-10-09T08:10:24;24.15;;;11.60;;
32838;SDS011;19182;41.820;12.808;2023-10-09T08:12:51;20.55;;;10.07;;
32838;SDS011;19182;41.820;12.808;2023-10-09T08:15:45;17.63;;;10.98;;
32838;SDS011;19182;41.820;12.808;2023-10-09T08:18:18;24.45;;;11.13;;
32838;SDS011;19182;41.820;12.808;2023-10-09T08:20:56;33.20;;;15.95;;
32838;SDS011;19182;41.820;12.808;2023-10-09T08:26:00;28.50;;;12.05;;
32838;SDS011;19182;41.820;12.808;2023-10-09T08:28:38;20.83;;;8.98;;
32838;SDS011;19182;41.820;12.808;2023-10-09T08:31:15;21.02;;;7.15;;
32838;SDS011;19182;41.820;12.808;2023-10-09T08:33:59;13.05;;;5.50;;
32838;SDS011;19182;41.820;12.808;2023-10-09T08:36:28;16.33;;;9.07;;
32838;SDS011;19182;41.820;12.808;2023-10-09T08:39:01;18.13;;;6.00;;
32838;SDS011;19182;41.820;12.808;2023-10-09T08:41:50;16.38;;;5.70;;
32838;SDS011;19182;41.820;12.808;2023-10-09T08:44:17;17.52;;;6.15;;
32838;SDS011;19182;41.820;12.808;2023-10-09T08:46:48;15.55;;;6.30;;
32838;SDS011;19182;41.820;12.808;2023-10-09T08:49:15;17.17;;;7.68;;
32838;SDS011;19182;41.820;12.808;2023-10-09T08:51:43;20.67;;;8.10;;
32838;SDS011;19182;41.820;12.808;2023-10-09T08:54:11;21.63;;;9.07;;
32838;SDS011;19182;41.820;12.808;2023-10-09T08:56:39;26.70;;;12.18;;
32838;SDS011;19182;41.820;12.808;2023-10-09T08:59:14;26.17;;;11.73;;
32838;SDS011;19182;41.820;12.808;2023-10-09T09:07:28;23.70;;;10.55;;
32838;SDS011;19182;41.820;12.808;2023-10-09T09:09:58;19.95;;;6.82;;
32838;SDS011;19182;41.820;12.808;2023-10-09T09:12:28;23.70;;;11.25;;
32838;SDS011;19182;41.820;12.808;2023-10-09T09:15:02;21.63;;;10.27;;
32838;SDS011;19182;41.820;12.808;2023-10-09T09:17:32;24.77;;;9.95;;
32838;SDS011;19182;41.820;12.808;2023-10-09T09:19:59;14.93;;;5.82;;
32838;SDS011;19182;41.820;12.808;2023-10-09T09:22:51;15.88;;;7.47;;
32838;SDS011;19182;41.820;12.808;2023-10-09T09:25:19;13.98;;;8.00;;
32838;SDS011;19182;41.820;12.808;2023-10-09T09:27:49;20.27;;;9.20;;
32838;SDS011;19182;41.820;12.808;2023-10-09T09:30:27;13.60;;;6.65;;
32838;SDS011;19182;41.820;12.808;2023-10-09T09:32:58;12.55;;;6.68;;
32838;SDS011;19182;41.820;12.808;2023-10-09T09:36:18;16.00;;;7.70;;
32838;SDS011;19182;41.820;12.808;2023-10-09T09:38:37;14.77;;;6.68;;
32838;SDS011;19182;41.820;12.808;2023-10-09T09:41:18;17.45;;;6.88;;
32838;SDS011;19182;41.820;12.808;2023-10-09T09:43:54;18.83;;;6.40;;
32838;SDS011;19182;41.820;12.808;2023-10-09T09:46:33;19.20;;;7.20;;
32838;SDS011;19182;41.820;12.808;2023-10-09T09:49:00;17.45;;;7.13;;
32838;SDS011;19182;41.820;12.808;2023-10-09T09:51:29;17.63;;;6.75;;
32838;SDS011;19182;41.820;12.808;2023-10-09T09:53:55;16.33;;;6.97;;
32838;SDS011;19182;41.820;12.808;2023-10-09T09:56:24;15.68;;;6.13;;
32838;SDS011;19182;41.820;12.808;2023-10-09T09:58:50;9.43;;;6.32;;
32838;SDS011;19182;41.820;12.808;2023-10-09T10:01:30;15.52;;;5.53;;
32838;SDS011;19182;41.820;12.808;2023-10-09T10:04:18;14.90;;;5.47;;
32838;SDS011;19182;41.820;12.808;2023-10-09T10:06:46;13.45;;;5.53;;
32838;SDS011;19182;41.820;12.808;2023-10-09T10:09:35;12.73;;;5.82;;
32838;SDS011;19182;41.820;12.808;2023-10-09T10:12:07;17.60;;;9.77;;
32838;SDS011;19182;41.820;12.808;2023-10-09T10:14:57;19.67;;;10.02;;
32838;SDS011;19182;41.820;12.808;2023-10-09T10:17:24;23.83;;;9.80;;
32838;SDS011;19182;41.820;12.808;2023-10-09T10:19:59;18.15;;;9.88;;
32838;SDS011;19182;41.820;12.808;2023-10-09T10:22:38;15.93;;;6.82;;
32838;SDS011;19182;41.820;12.808;2023-10-09T10:25:04;17.13;;;7.05;;
32838;SDS011;19182;41.820;12.808;2023-10-09T10:27:34;13.90;;;6.13;;
32838;SDS011;19182;41.820;12.808;2023-10-09T10:32:57;14.02;;;7.93;;
32838;SDS011;19182;41.820;12.808;2023-10-09T10:35:44;14.15;;;6.45;;
32838;SDS011;19182;41.820;12.808;2023-10-09T10:38:33;24.05;;;10.32;;
32838;SDS011;19182;41.820;12.808;2023-10-09T10:41:17;12.77;;;6.85;;
32838;SDS011;19182;41.820;12.808;2023-10-09T10:43:48;12.85;;;6.93;;
32838;SDS011;19182;41.820;12.808;2023-10-09T10:46:16;18.33;;;6.10;;
32838;SDS011;19182;41.820;12.808;2023-10-09T10:48:51;12.23;;;5.18;;
32838;SDS011;19182;41.820;12.808;2023-10-09T10:51:38;11.70;;;4.88;;
32838;SDS011;19182;41.820;12.808;2023-10-09T10:54:05;7.75;;;5.05;;
32838;SDS011;19182;41.820;12.808;2023-10-09T10:56:53;14.93;;;5.30;;
32838;SDS011;19182;41.820;12.808;2023-10-09T10:59:22;6.90;;;4.50;;
32838;SDS011;19182;41.820;12.808;2023-10-09T11:01:49;8.63;;;4.45;;
32838;SDS011;19182;41.820;12.808;2023-10-09T11:04:23;14.68;;;4.90;;
32838;SDS011;19182;41.820;12.808;2023-10-09T11:06:55;13.30;;;5.55;;
32838;SDS011;19182;41.820;12.808;2023-10-09T11:09:42;11.77;;;5.20;;
32838;SDS011;19182;41.820;12.808;2023-10-09T11:12:23;16.35;;;4.85;;
32838;SDS011;19182;41.820;12.808;2023-10-09T11:14:50;14.30;;;4.88;;
32838;SDS011;19182;41.820;12.808;2023-10-09T11:18:02;9.48;;;4.20;;
32838;SDS011;19182;41.820;12.808;2023-10-09T11:20:55;12.32;;;4.68;;
32838;SDS011;19182;41.820;12.808;2023-10-09T11:23:31;12.75;;;4.78;;
32838;SDS011;19182;41.820;12.808;2023-10-09T11:26:00;11.40;;;4.53;;
32838;SDS011;19182;41.820;12.808;2023-10-09T11:29:07;13.13;;;4.85;;
32838;SDS011;19182;41.820;12.808;2023-10-09T11:32:04;8.88;;;5.30;;
32838;SDS011;19182;41.820;12.808;2023-10-09T11:34:33;10.65;;;4.70;;
32838;SDS011;19182;41.820;12.808;2023-10-09T11:37:07;15.60;;;5.75;;
32838;SDS011;19182;41.820;12.808;2023-10-09T11:39:40;14.23;;;4.75;;
32838;SDS011;19182;41.820;12.808;2023-10-09T11:42:17;13.27;;;4.50;;
32838;SDS011;19182;41.820;12.808;2023-10-09T11:45:18;12.43;;;5.90;;
32838;SDS011;19182;41.820;12.808;2023-10-09T11:47:48;10.32;;;4.97;;
32838;SDS011;19182;41.820;12.808;2023-10-09T11:50:40;14.13;;;5.22;;
32838;SDS011;19182;41.820;12.808;2023-10-09T11:53:43;21.60;;;5.18;;
32838;SDS011;19182;41.820;12.808;2023-10-09T11:56:11;15.05;;;5.38;;
32838;SDS011;19182;41.820;12.808;2023-10-09T11:58:41;8.32;;;4.65;;
32838;SDS011;19182;41.820;12.808;2023-10-09T12:01:11;16.88;;;5.07;;
32838;SDS011;19182;41.820;12.808;2023-10-09T12:03:48;20.58;;;4.22;;
32838;SDS011;19182;41.820;12.808;2023-10-09T12:06:15;10.27;;;4.60;;
32838;SDS011;19182;41.820;12.808;2023-10-09T12:08:44;9.90;;;4.07;;
32838;SDS011;19182;41.820;12.808;2023-10-09T12:11:17;9.50;;;4.05;;
32838;SDS011;19182;41.820;12.808;2023-10-09T12:13:53;8.32;;;4.18;;
32838;SDS011;19182;41.820;12.808;2023-10-09T12:18:53;9.32;;;4.32;;
32838;SDS011;19182;41.820;12.808;2023-10-09T12:21:20;10.02;;;3.17;;
32838;SDS011;19182;41.820;12.808;2023-10-09T12:23:45;11.60;;;4.45;;
32838;SDS011;19182;41.820;12.808;2023-10-09T12:26:13;10.60;;;3.92;;
32838;SDS011;19182;41.820;12.808;2023-10-09T12:28:42;12.05;;;4.15;;
32838;SDS011;19182;41.820;12.808;2023-10-09T12:31:15;13.55;;;5.00;;
32838;SDS011;19182;41.820;12.808;2023-10-09T12:33:45;11.88;;;4.50;;
32838;SDS011;19182;41.820;12.808;2023-10-09T12:36:12;11.02;;;4.43;;
32838;SDS011;19182;41.820;12.808;2023-10-09T12:38:44;11.90;;;4.88;;
32838;SDS011;19182;41.820;12.808;2023-10-09T12:41:15;11.90;;;5.13;;
32838;SDS011;19182;41.820;12.808;2023-10-09T12:43:50;9.93;;;4.85;;
32838;SDS011;19182;41.820;12.808;2023-10-09T12:46:17;24.00;;;6.20;;
32838;SDS011;19182;41.820;12.808;2023-10-09T12:48:54;31.20;;;6.05;;
32838;SDS011;19182;41.820;12.808;2023-10-09T12:51:21;17.25;;;5.40;;
32838;SDS011;19182;41.820;12.808;2023-10-09T12:53:54;10.68;;;4.68;;
32838;SDS011;19182;41.820;12.808;2023-10-09T12:56:26;8.80;;;4.43;;
32838;SDS011;19182;41.820;12.808;2023-10-09T12:59:00;11.82;;;5.18;;
32838;SDS011;19182;41.820;12.808;2023-10-09T13:01:29;12.30;;;5.10;;
32838;SDS011;19182;41.820;12.808;2023-10-09T13:04:16;11.13;;;4.55;;
32838;SDS011;19182;41.820;12.808;2023-10-09T13:06:43;14.50;;;4.72;;
32838;SDS011;19182;41.820;12.808;2023-10-09T13:09:12;11.05;;;4.25;;
32838;SDS011;19182;41.820;12.808;2023-10-09T13:11:39;12.02;;;4.72;;
32838;SDS011;19182;41.820;12.808;2023-10-09T13:14:05;14.70;;;5.20;;
32838;SDS011;19182;41.820;12.808;2023-10-09T13:16:45;10.68;;;4.82;;
32838;SDS011;19182;41.820;12.808;2023-10-09T13:19:12;9.40;;;4.47;;
32838;SDS011;19182;41.820;12.808;2023-10-09T13:21:37;8.50;;;4.75;;
32838;SDS011;19182;41.820;12.808;2023-10-09T13:24:07;12.88;;;5.22;;
32838;SDS011;19182;41.820;12.808;2023-10-09T13:26:41;14.82;;;4.90;;
32838;SDS011;19182;41.820;12.808;2023-10-09T13:29:10;15.23;;;5.40;;
32838;SDS011;19182;41.820;12.808;2023-10-09T13:31:36;12.30;;;5.22;;
32838;SDS011;19182;41.820;12.808;2023-10-09T13:34:06;10.25;;;4.78;;
32838;SDS011;19182;41.820;12.808;2023-10-09T13:36:34;14.57;;;5.88;;
32838;SDS011;19182;41.820;12.808;2023-10-09T13:39:06;9.88;;;4.88;;
32838;SDS011;19182;41.820;12.808;2023-10-09T13:41:44;12.00;;;5.53;;
32838;SDS011;19182;41.820;12.808;2023-10-09T13:44:10;13.15;;;5.65;;
32838;SDS011;19182;41.820;12.808;2023-10-09T13:46:36;10.68;;;5.45;;
32838;SDS011;19182;41.820;12.808;2023-10-09T13:49:06;13.90;;;5.57;;
32838;SDS011;19182;41.820;12.808;2023-10-09T13:51:39;13.10;;;7.07;;
32838;SDS011;19182;41.820;12.808;2023-10-09T13:54:09;12.90;;;5.75;;
32838;SDS011;19182;41.820;12.808;2023-10-09T13:56:56;16.02;;;7.03;;
32838;SDS011;19182;41.820;12.808;2023-10-09T13:59:23;13.68;;;5.57;;
32838;SDS011;19182;41.820;12.808;2023-10-09T14:01:54;12.57;;;6.05;;
32838;SDS011;19182;41.820;12.808;2023-10-09T14:04:22;12.30;;;6.15;;
32838;SDS011;19182;41.820;12.808;2023-10-09T14:06:51;15.40;;;5.97;;
32838;SDS011;19182;41.820;12.808;2023-10-09T14:09:25;13.45;;;6.60;;
32838;SDS011;19182;41.820;12.808;2023-10-09T14:12:06;11.55;;;6.32;;
32838;SDS011;19182;41.820;12.808;2023-10-09T14:16:59;12.02;;;5.53;;
32838;SDS011;19182;41.820;12.808;2023-10-09T14:19:25;21.05;;;6.88;;
32838;SDS011;19182;41.820;12.808;2023-10-09T14:21:51;11.30;;;6.32;;
32838;SDS011;19182;41.820;12.808;2023-10-09T14:24:17;15.40;;;6.50;;
32838;SDS011;19182;41.820;12.808;2023-10-09T14:26:45;10.25;;;6.03;;
32838;SDS011;19182;41.820;12.808;2023-10-09T14:29:12;12.63;;;7.05;;
32838;SDS011;19182;41.820;12.808;2023-10-09T14:31:44;17.60;;;6.78;;
32838;SDS011;19182;41.820;12.808;2023-10-09T14:34:14;18.33;;;7.75;;
32838;SDS011;19182;41.820;12.808;2023-10-09T14:36:40;16.17;;;7.93;;
32838;SDS011;19182;41.820;12.808;2023-10-09T14:39:09;12.98;;;6.70;;
32838;SDS011;19182;41.820;12.808;2023-10-09T14:41:38;11.18;;;6.85;;
32838;SDS011;19182;41.820;12.808;2023-10-09T14:44:05;11.80;;;6.65;;
32838;SDS011;19182;41.820;12.808;2023-10-09T14:46:31;16.98;;;7.78;;
32838;SDS011;19182;41.820;12.808;2023-10-09T14:48:57;9.70;;;6.40;;
32838;SDS011;19182;41.820;12.808;2023-10-09T14:51:23;15.90;;;6.53;;
32838;SDS011;19182;41.820;12.808;2023-10-09T14:56:22;13.70;;;6.55;;
32838;SDS011;19182;41.820;12.808;2023-10-09T14:58:55;9.90;;;6.50;;
32838;SDS011;19182;41.820;12.808;2023-10-09T15:01:23;12.68;;;6.50;;
32838;SDS011;19182;41.820;12.808;2023-10-09T15:03:50;18.48;;;6.45;;
32838;SDS011;19182;41.820;12.808;2023-10-09T15:06:20;11.07;;;6.40;;
32838;SDS011;19182;41.820;12.808;2023-10-09T15:08:48;9.65;;;6.05;;
32838;SDS011;19182;41.820;12.808;2023-10-09T15:11:14;16.20;;;6.85;;
32838;SDS011;19182;41.820;12.808;2023-10-09T15:13:40;10.70;;;6.15;;
32838;SDS011;19182;41.820;12.808;2023-10-09T15:16:09;13.52;;;5.80;;
32838;SDS011;19182;41.820;12.808;2023-10-09T15:18:36;11.73;;;5.65;;
32838;SDS011;19182;41.820;12.808;2023-10-09T15:21:02;17.83;;;6.47;;
32838;SDS011;19182;41.820;12.808;2023-10-09T15:23:28;10.25;;;5.15;;
32838;SDS011;19182;41.820;12.808;2023-10-09T15:25:54;18.38;;;6.13;;
32838;SDS011;19182;41.820;12.808;2023-10-09T15:28:20;9.82;;;5.07;;